Terminal Aerodrome Forecast
Issued by NWS

Home | Current Version | Previous Version | Text Only | Print | Product List | Glossary On
Versions: 1 2 3 4 5 6 7 8 9 10 11 12 13
000
FTUS43 KEAX 011700
TAFMKC
TAF
KMKC 011740Z 0118/0218 14008KT P6SM SCT025 BKN120
     FM011900 10008KT P6SM FEW025 BKN120
     FM012200 09009KT P6SM VCTS BKN040CB
     FM020300 07010KT P6SM VCSH BKN035
     FM020700 04009KT P6SM BKN030=

USA.gov is the U.S. government's official web portal to all federal, state and local government web resources and services.